Time,TemperatureF,DewpointF,PressureIn,WindDirection,WindDirectionDegrees,WindSpeedMPH,WindSpeedGustMPH,Humidity,HourlyPrecipIn,Conditions,Clouds,dailyrainin,SolarRadiationWatts/m^2,SoftwareType,DateUTC
2013-03-21 00:02:00,45.0,31.0,-100.00,ESE,116,2.0,4.0,58,0.00,,,0.00,0.000000,,2013-03-21 05:02:00,
2013-03-21 00:22:00,45.0,31.0,-100.00,ESE,116,2.0,4.0,58,0.00,,,0.00,0.000000,,2013-03-21 05:22:00,
2013-03-21 00:33:00,45.0,31.0,-100.00,ESE,116,2.0,4.0,58,0.00,,,0.00,0.000000,,2013-03-21 05:33:00,
2013-03-21 00:44:00,45.0,31.0,-100.00,ESE,116,2.0,4.0,58,0.00,,,0.00,0.000000,,2013-03-21 05:44:00,
2013-03-21 00:52:00,45.0,31.0,-100.00,ESE,116,2.0,4.0,58,0.00,,,0.00,0.000000,,2013-03-21 05:52:00,
2013-03-21 01:02:00,43.0,32.0,-100.00,SE,130,2.0,3.0,66,0.00,,,0.00,0.000000,,2013-03-21 06:02:00,
2013-03-21 01:23:00,43.0,32.0,-100.00,SE,130,2.0,3.0,66,0.00,,,0.00,0.000000,,2013-03-21 06:23:00,
2013-03-21 01:32:00,43.0,32.0,-100.00,SE,130,2.0,3.0,66,0.00,,,0.00,0.000000,,2013-03-21 06:32:00,
2013-03-21 01:42:00,43.0,32.0,-100.00,SE,130,2.0,3.0,66,0.00,,,0.00,0.000000,,2013-03-21 06:42:00,
2013-03-21 01:52:00,43.0,32.0,-100.00,SE,130,2.0,3.0,66,0.00,,,0.00,0.000000,,2013-03-21 06:52:00,
2013-03-21 02:02:00,41.0,31.0,-100.00,ESE,114,2.0,5.0,67,0.00,,,0.00,0.000000,,2013-03-21 07:02:00,
2013-03-21 02:32:00,41.0,31.0,-100.00,ESE,114,2.0,5.0,67,0.00,,,0.00,0.000000,,2013-03-21 07:32:00,
2013-03-21 02:43:00,41.0,31.0,-100.00,ESE,114,2.0,5.0,67,0.00,,,0.00,0.000000,,2013-03-21 07:43:00,
2013-03-21 02:52:00,41.0,31.0,-100.00,ESE,114,2.0,5.0,67,0.00,,,0.00,0.000000,,2013-03-21 07:52:00,
2013-03-21 03:02:00,40.0,34.0,-100.00,East,86,3.0,4.0,78,0.00,,,0.00,0.000000,,2013-03-21 08:02:00,
2013-03-21 03:33:00,40.0,34.0,-100.00,East,86,3.0,4.0,78,0.00,,,0.00,0.000000,,2013-03-21 08:33:00,
2013-03-21 03:42:00,40.0,34.0,-100.00,East,86,3.0,4.0,78,0.00,,,0.00,0.000000,,2013-03-21 08:42:00,
2013-03-21 03:52:00,40.0,34.0,-100.00,East,86,3.0,4.0,78,0.00,,,0.00,0.000000,,2013-03-21 08:52:00,
2013-03-21 04:02:00,39.0,31.0,-100.00,East,82,2.0,4.0,72,0.00,,,0.00,0.000000,,2013-03-21 09:02:00,
2013-03-21 04:33:00,39.0,31.0,-100.00,East,82,2.0,4.0,72,0.00,,,0.00,0.000000,,2013-03-21 09:33:00,
2013-03-21 04:43:00,39.0,31.0,-100.00,East,82,2.0,4.0,72,0.00,,,0.00,0.000000,,2013-03-21 09:43:00,
2013-03-21 04:53:00,39.0,31.0,-100.00,East,82,2.0,4.0,72,0.00,,,0.00,0.000000,,2013-03-21 09:53:00,
2013-03-21 05:02:00,38.0,29.0,-100.00,East,96,3.0,4.0,71,0.00,,,0.00,0.000000,,2013-03-21 10:02:00,
2013-03-21 05:23:00,38.0,29.0,-100.00,East,96,3.0,4.0,71,0.00,,,0.00,0.000000,,2013-03-21 10:23:00,
2013-03-21 05:34:00,38.0,29.0,-100.00,East,96,3.0,4.0,71,0.00,,,0.00,0.000000,,2013-03-21 10:34:00,
2013-03-21 05:43:00,38.0,29.0,-100.00,East,96,3.0,4.0,71,0.00,,,0.00,0.000000,,2013-03-21 10:43:00,
2013-03-21 05:53:00,38.0,29.0,-100.00,East,96,3.0,4.0,71,0.00,,,0.00,0.000000,,2013-03-21 10:53:00,
2013-03-21 06:02:00,40.0,29.0,-100.00,East,86,6.0,10.0,64,0.00,,,0.00,0.000000,,2013-03-21 11:02:00,
2013-03-21 06:33:00,40.0,29.0,-100.00,East,86,6.0,10.0,64,0.00,,,0.00,0.000000,,2013-03-21 11:33:00,
2013-03-21 06:43:00,40.0,29.0,-100.00,East,86,6.0,10.0,64,0.00,,,0.00,0.000000,,2013-03-21 11:43:00,
2013-03-21 06:53:00,40.0,29.0,-100.00,East,86,6.0,10.0,64,0.00,,,0.00,0.000000,,2013-03-21 11:53:00,
2013-03-21 07:02:00,41.0,26.0,-100.00,East,93,5.0,10.0,54,0.00,,,0.00,0.000000,,2013-03-21 12:02:00,
2013-03-21 07:33:00,41.0,26.0,-100.00,East,93,5.0,10.0,54,0.00,,,0.00,0.000000,,2013-03-21 12:33:00,
2013-03-21 07:43:00,41.0,26.0,-100.00,East,93,5.0,10.0,54,0.00,,,0.00,0.000000,,2013-03-21 12:43:00,
2013-03-21 07:53:00,41.0,26.0,-100.00,East,93,5.0,10.0,54,0.00,,,0.00,0.000000,,2013-03-21 12:53:00,
2013-03-21 08:02:00,42.0,24.0,-100.00,East,95,8.0,15.0,48,0.00,,,0.00,16.000000,,2013-03-21 13:02:00,
2013-03-21 08:32:00,42.0,24.0,-100.00,East,95,8.0,15.0,48,0.00,,,0.00,16.000000,,2013-03-21 13:32:00,
2013-03-21 08:42:00,42.0,24.0,-100.00,East,95,8.0,15.0,48,0.00,,,0.00,16.000000,,2013-03-21 13:42:00,
2013-03-21 08:52:00,42.0,24.0,-100.00,East,95,8.0,15.0,48,0.00,,,0.00,16.000000,,2013-03-21 13:52:00,
2013-03-21 09:02:00,43.0,20.0,-100.00,East,94,9.0,17.0,40,0.00,,,0.00,145.000000,,2013-03-21 14:02:00,
2013-03-21 09:32:00,43.0,20.0,-100.00,East,94,9.0,17.0,40,0.00,,,0.00,145.000000,,2013-03-21 14:32:00,
2013-03-21 09:43:00,43.0,20.0,-100.00,East,94,9.0,17.0,40,0.00,,,0.00,145.000000,,2013-03-21 14:43:00,
2013-03-21 09:52:00,43.0,20.0,-100.00,East,94,9.0,17.0,40,0.00,,,0.00,145.000000,,2013-03-21 14:52:00,
2013-03-21 10:02:00,46.0,19.0,-100.00,ESE,109,9.0,17.0,33,0.00,,,0.00,346.000000,,2013-03-21 15:02:00,
2013-03-21 10:33:00,46.0,19.0,-100.00,ESE,109,9.0,17.0,33,0.00,,,0.00,346.000000,,2013-03-21 15:33:00,
2013-03-21 10:43:00,46.0,19.0,-100.00,ESE,109,9.0,17.0,33,0.00,,,0.00,346.000000,,2013-03-21 15:43:00,
2013-03-21 10:53:00,46.0,19.0,-100.00,ESE,109,9.0,17.0,33,0.00,,,0.00,346.000000,,2013-03-21 15:53:00,
2013-03-21 11:02:00,46.0,18.0,-100.00,ESE,104,8.0,19.0,32,0.00,,,0.00,322.000000,,2013-03-21 16:02:00,
2013-03-21 11:33:00,46.0,18.0,-100.00,ESE,104,8.0,19.0,32,0.00,,,0.00,322.000000,,2013-03-21 16:33:00,
2013-03-21 11:42:00,46.0,18.0,-100.00,ESE,104,8.0,19.0,32,0.00,,,0.00,322.000000,,2013-03-21 16:42:00,
2013-03-21 11:53:00,46.0,18.0,-100.00,ESE,104,8.0,19.0,32,0.00,,,0.00,322.000000,,2013-03-21 16:53:00,
2013-03-21 12:02:00,46.0,21.0,-100.00,East,100,7.0,14.0,37,0.00,,,0.00,191.000000,,2013-03-21 17:02:00,
2013-03-21 12:33:00,46.0,21.0,-100.00,East,100,7.0,14.0,37,0.00,,,0.00,191.000000,,2013-03-21 17:33:00,
2013-03-21 12:43:00,46.0,21.0,-100.00,East,100,7.0,14.0,37,0.00,,,0.00,191.000000,,2013-03-21 17:43:00,
2013-03-21 12:53:00,46.0,21.0,-100.00,East,100,7.0,14.0,37,0.00,,,0.00,191.000000,,2013-03-21 17:53:00,
2013-03-21 13:02:00,44.0,32.0,-100.00,ESE,118,5.0,15.0,63,0.01,,,0.01,116.000000,,2013-03-21 18:02:00,
2013-03-21 13:23:00,44.0,32.0,-100.00,ESE,118,5.0,15.0,63,0.01,,,0.01,116.000000,,2013-03-21 18:23:00,
2013-03-21 13:32:00,44.0,32.0,-100.00,ESE,118,5.0,15.0,63,0.01,,,0.01,116.000000,,2013-03-21 18:32:00,
2013-03-21 13:43:00,44.0,32.0,-100.00,ESE,118,5.0,15.0,63,0.01,,,0.01,116.000000,,2013-03-21 18:43:00,
2013-03-21 13:52:00,44.0,32.0,-100.00,ESE,118,5.0,15.0,63,0.01,,,0.01,116.000000,,2013-03-21 18:52:00,
2013-03-21 14:02:00,41.0,36.0,-100.00,ENE,70,5.0,8.0,83,0.07,,,0.08,81.000000,,2013-03-21 19:02:00,
2013-03-21 14:23:00,41.0,36.0,-100.00,ENE,70,5.0,8.0,83,0.07,,,0.08,81.000000,,2013-03-21 19:23:00,
2013-03-21 14:32:00,41.0,36.0,-100.00,ENE,70,5.0,8.0,83,0.07,,,0.08,81.000000,,2013-03-21 19:32:00,
2013-03-21 14:43:00,41.0,36.0,-100.00,ENE,70,5.0,8.0,83,0.07,,,0.08,81.000000,,2013-03-21 19:43:00,
2013-03-21 14:53:00,41.0,36.0,-100.00,ENE,70,5.0,8.0,83,0.07,,,0.08,81.000000,,2013-03-21 19:53:00,
2013-03-21 15:02:00,41.0,36.0,-100.00,East,89,8.0,13.0,81,0.04,,,0.12,94.000000,,2013-03-21 20:02:00,
2013-03-21 15:33:00,41.0,36.0,-100.00,East,89,8.0,13.0,81,0.04,,,0.12,94.000000,,2013-03-21 20:33:00,
2013-03-21 15:42:00,41.0,36.0,-100.00,East,89,8.0,13.0,81,0.04,,,0.12,94.000000,,2013-03-21 20:42:00,
2013-03-21 15:53:00,41.0,36.0,-100.00,East,89,8.0,13.0,81,0.04,,,0.12,94.000000,,2013-03-21 20:53:00,
2013-03-21 16:02:00,40.0,36.0,-100.00,East,90,8.0,18.0,85,0.01,,,0.13,75.000000,,2013-03-21 21:02:00,
2013-03-21 16:23:00,40.0,36.0,-100.00,East,90,8.0,18.0,85,0.01,,,0.13,75.000000,,2013-03-21 21:23:00,
2013-03-21 16:33:00,40.0,36.0,-100.00,East,90,8.0,18.0,85,0.01,,,0.13,75.000000,,2013-03-21 21:33:00,
2013-03-21 16:43:00,40.0,36.0,-100.00,East,90,8.0,18.0,85,0.01,,,0.13,75.000000,,2013-03-21 21:43:00,
2013-03-21 16:53:00,40.0,36.0,-100.00,East,90,8.0,18.0,85,0.01,,,0.13,75.000000,,2013-03-21 21:53:00,
2013-03-21 17:02:00,42.0,36.0,-100.00,East,98,8.0,18.0,79,0.01,,,0.14,80.000000,,2013-03-21 22:02:00,
2013-03-21 17:33:00,42.0,36.0,-100.00,East,98,8.0,18.0,79,0.01,,,0.14,80.000000,,2013-03-21 22:33:00,
2013-03-21 17:43:00,42.0,36.0,-100.00,East,98,8.0,18.0,79,0.01,,,0.14,80.000000,,2013-03-21 22:43:00,
2013-03-21 17:53:00,42.0,36.0,-100.00,East,98,8.0,18.0,79,0.01,,,0.14,80.000000,,2013-03-21 22:53:00,
2013-03-21 18:02:00,41.0,37.0,-100.00,ENE,77,8.0,15.0,84,0.00,,,0.14,69.000000,,2013-03-21 23:02:00,
2013-03-21 18:22:00,41.0,37.0,-100.00,ENE,77,8.0,15.0,84,0.00,,,0.14,69.000000,,2013-03-21 23:22:00,
2013-03-21 18:33:00,41.0,37.0,-100.00,ENE,77,8.0,15.0,84,0.00,,,0.14,69.000000,,2013-03-21 23:33:00,
2013-03-21 18:43:00,41.0,37.0,-100.00,ENE,77,8.0,15.0,84,0.00,,,0.14,69.000000,,2013-03-21 23:43:00,
2013-03-21 18:53:00,41.0,37.0,-100.00,ENE,77,8.0,15.0,84,0.00,,,0.14,69.000000,,2013-03-21 23:53:00,
2013-03-21 19:02:00,40.0,35.0,-100.00,East,83,8.0,14.0,83,0.00,,,0.14,32.000000,,2013-03-22 00:02:00,
2013-03-21 19:22:00,40.0,35.0,-100.00,East,83,8.0,14.0,83,0.00,,,0.14,32.000000,,2013-03-22 00:22:00,
2013-03-21 19:32:00,40.0,35.0,-100.00,East,83,8.0,14.0,83,0.00,,,0.14,32.000000,,2013-03-22 00:32:00,
2013-03-21 19:42:00,40.0,35.0,-100.00,East,83,8.0,14.0,83,0.00,,,0.14,32.000000,,2013-03-22 00:42:00,
2013-03-21 19:52:00,40.0,35.0,-100.00,East,83,8.0,14.0,83,0.00,,,0.14,32.000000,,2013-03-22 00:52:00,
2013-03-21 20:02:00,40.0,35.0,-100.00,ENE,78,9.0,18.0,82,0.00,,,0.14,4.000000,,2013-03-22 01:02:00,
2013-03-21 20:33:00,40.0,35.0,-100.00,ENE,78,9.0,18.0,82,0.00,,,0.14,4.000000,,2013-03-22 01:33:00,
2013-03-21 20:43:00,40.0,35.0,-100.00,ENE,78,9.0,18.0,82,0.00,,,0.14,4.000000,,2013-03-22 01:43:00,
2013-03-21 20:53:00,40.0,35.0,-100.00,ENE,78,9.0,18.0,82,0.00,,,0.14,4.000000,,2013-03-22 01:53:00,
2013-03-21 21:02:00,40.0,35.0,-100.00,East,79,9.0,16.0,82,0.00,,,0.14,0.000000,,2013-03-22 02:02:00,
2013-03-21 21:32:00,40.0,35.0,-100.00,East,79,9.0,16.0,82,0.00,,,0.14,0.000000,,2013-03-22 02:32:00,
2013-03-21 21:43:00,40.0,35.0,-100.00,East,79,9.0,16.0,82,0.00,,,0.14,0.000000,,2013-03-22 02:43:00,
2013-03-21 21:53:00,40.0,35.0,-100.00,East,79,9.0,16.0,82,0.00,,,0.14,0.000000,,2013-03-22 02:53:00,
2013-03-21 22:02:00,40.0,35.0,-100.00,ENE,78,10.0,17.0,81,0.00,,,0.14,0.000000,,2013-03-22 03:02:00,
2013-03-21 22:33:00,40.0,35.0,-100.00,ENE,78,10.0,17.0,81,0.00,,,0.14,0.000000,,2013-03-22 03:33:00,
2013-03-21 22:43:00,40.0,35.0,-100.00,ENE,78,10.0,17.0,81,0.00,,,0.14,0.000000,,2013-03-22 03:43:00,
2013-03-21 22:53:00,40.0,35.0,-100.00,ENE,78,10.0,17.0,81,0.00,,,0.14,0.000000,,2013-03-22 03:53:00,
2013-03-21 23:02:00,39.0,35.0,-100.00,ENE,74,10.0,16.0,86,0.02,,,0.16,0.000000,,2013-03-22 04:02:00,
2013-03-21 23:23:00,39.0,35.0,-100.00,ENE,74,10.0,16.0,86,0.02,,,0.16,0.000000,,2013-03-22 04:23:00,
2013-03-21 23:32:00,39.0,35.0,-100.00,ENE,74,10.0,16.0,86,0.02,,,0.16,0.000000,,2013-03-22 04:32:00,
2013-03-21 23:43:00,39.0,35.0,-100.00,ENE,74,10.0,16.0,86,0.02,,,0.16,0.000000,,2013-03-22 04:43:00,
2013-03-21 23:52:00,39.0,35.0,-100.00,ENE,74,10.0,16.0,86,0.02,,,0.16,0.000000,,2013-03-22 04:52:00,